Snow/Ice From: 17-12-2017 10:00 Until: 18-12-2017 06:00 warning for: Snow/Ice Level: Yellow info button

Although rather usual in this region, locally or potentially dangerous phenomena are expected. (such as local winds, summer thunderstorms, rising streams or high waves) Be aware and pay attention to the latest weather updates, especially if you carry out activities exposed to weather or close to a stream or shoreline. 


Meteo18 Weather Cam more information Meteo18 Weather Cam


Thunder radar more information blitzortung!


warning for Snow/Ice more information rain snow radar


Visit our other weather sites:

Template documentation
and downloads

And another site



Weather Underground History page Text

Daily Summary for September 22, 2017 Units:  Metric    English   Both
« Previous Day
Next Day »
Daily Weekly Monthly Yearly Custom
  High: Low: Average:
Temperature: 21.5 °C 8.1 °C 14.8 °C
Dew Point: 13.2 °C 7.3 °C 10.8 °C
Humidity: 96 % 55 % 79 %
Wind Speed: 9.7 km/h 0.0 km/h 1.2 km/h
Wind Gust: 14.5 km/h - -
Wind:- - SW
Pressure: 1024.3 hPa 1019.9 hPa -
Precipitation: 0.0 mm    
Historical Graphs
 
 
Tabular Data for September 22, 2017
Time Temperature Dew Point Pressure Wind Wind Speed Wind Gust Humidity Rainfall Rate (Hourly)
00:02 11.3 °C 9.7 °C 1019.9 hPa Calm     90 % 0.0 mm
00:12 11.3 °C 9.7 °C 1019.9 hPa Calm     90 % 0.0 mm
00:17 11.2 °C 9.6 °C 1019.9 hPa Calm     90 % 0.0 mm
00:22 11.0 °C 9.4 °C 1019.9 hPa Calm     90 % 0.0 mm
00:27 10.8 °C 9.2 °C 1019.9 hPa Calm     90 % 0.0 mm
00:37 10.7 °C 9.3 °C 1019.9 hPa Calm     91 % 0.0 mm
00:42 10.8 °C 9.6 °C 1019.9 hPa Calm     92 % 0.0 mm
00:52 10.7 °C 9.3 °C 1019.9 hPa Calm     91 % 0.0 mm
01:02 10.5 °C 9.3 °C 1020.2 hPa Calm     92 % 0.0 mm
01:12 10.4 °C 9.0 °C 1020.2 hPa Calm     91 % 0.0 mm
01:17 10.3 °C 8.9 °C 1020.2 hPa Calm     91 % 0.0 mm
01:22 10.4 °C 9.2 °C 1020.2 hPa Calm     92 % 0.0 mm
01:27 10.6 °C 9.4 °C 1020.2 hPa Calm     92 % 0.0 mm
01:32 10.7 °C 9.5 °C 1020.2 hPa Calm     92 % 0.0 mm
01:42 10.9 °C 9.5 °C 1020.2 hPa Calm     91 % 0.0 mm
01:47 10.7 °C 9.1 °C 1020.2 hPa Calm     90 % 0.0 mm
01:52 10.6 °C 9.2 °C 1020.2 hPa Calm     91 % 0.0 mm
02:02 10.2 °C 8.8 °C 1020.2 hPa Calm     91 % 0.0 mm
02:12 10.0 °C 8.8 °C 1020.2 hPa Calm     92 % 0.0 mm
02:17 9.9 °C 8.7 °C 1020.5 hPa Calm     92 % 0.0 mm
02:22 9.8 °C 8.6 °C 1020.2 hPa Calm     92 % 0.0 mm
02:32 9.9 °C 8.8 °C 1020.2 hPa Calm     93 % 0.0 mm
02:42 9.9 °C 8.8 °C 1020.5 hPa Calm     93 % 0.0 mm
02:47 9.8 °C 8.7 °C 1020.5 hPa Calm     93 % 0.0 mm
02:52 9.8 °C 8.6 °C 1020.5 hPa Calm     92 % 0.0 mm
03:02 9.7 °C 8.6 °C 1020.5 hPa Calm     93 % 0.0 mm
03:07 9.7 °C 8.6 °C 1020.2 hPa Calm     93 % 0.0 mm
03:12 9.7 °C 8.6 °C 1020.2 hPa Calm     93 % 0.0 mm
03:17 9.6 °C 8.5 °C 1020.2 hPa Calm     93 % 0.0 mm
03:22 9.6 °C 8.4 °C 1020.2 hPa Calm     92 % 0.0 mm
03:32 9.4 °C 8.2 °C 1020.2 hPa Calm     92 % 0.0 mm
03:42 9.3 °C 8.2 °C 1020.2 hPa Calm     93 % 0.0 mm
03:47 9.4 °C 8.5 °C 1020.2 hPa Calm     94 % 0.0 mm
03:52 9.3 °C 8.2 °C 1020.5 hPa Calm     93 % 0.0 mm
04:02 9.4 °C 8.5 °C 1020.5 hPa Calm     94 % 0.0 mm
04:12 9.1 °C 8.0 °C 1020.5 hPa Calm     93 % 0.0 mm
04:17 9.1 °C 8.2 °C 1020.2 hPa Calm     94 % 0.0 mm
04:22 9.2 °C 8.3 °C 1020.5 hPa Calm     94 % 0.0 mm
04:27 9.2 °C 8.3 °C 1020.2 hPa Calm     94 % 0.0 mm
04:32 9.2 °C 8.3 °C 1020.5 hPa Calm     94 % 0.0 mm
04:42 9.2 °C 8.3 °C 1020.5 hPa Calm     94 % 0.0 mm
04:47 9.2 °C 8.3 °C 1020.5 hPa Calm     94 % 0.0 mm
04:52 9.1 °C 8.2 °C 1020.5 hPa Calm     94 % 0.0 mm
04:57 9.1 °C 8.2 °C 1020.5 hPa Calm     94 % 0.0 mm
05:02 9.1 °C 8.2 °C 1020.5 hPa Calm     94 % 0.0 mm
05:12 8.9 °C 8.0 °C 1020.5 hPa Calm     94 % 0.0 mm
05:17 8.9 °C 8.0 °C 1020.5 hPa Calm     94 % 0.0 mm
05:22 8.9 °C 8.0 °C 1020.5 hPa Calm     94 % 0.0 mm
05:32 8.8 °C 7.9 °C 1020.5 hPa Calm     94 % 0.0 mm
05:42 8.7 °C 7.8 °C 1020.5 hPa Calm     94 % 0.0 mm
05:52 8.5 °C 7.6 °C 1020.5 hPa Calm     94 % 0.0 mm
06:02 8.4 °C 7.6 °C 1020.5 hPa Calm     95 % 0.0 mm
06:12 8.5 °C 7.7 °C 1020.5 hPa Calm     95 % 0.0 mm
06:17 8.5 °C 7.7 °C 1020.5 hPa Calm     95 % 0.0 mm
06:22 8.5 °C 7.7 °C 1020.5 hPa Calm     95 % 0.0 mm
06:32 8.5 °C 7.7 °C 1020.9 hPa Calm     95 % 0.0 mm
06:37 8.4 °C 7.6 °C 1020.5 hPa Calm     95 % 0.0 mm
06:42 8.4 °C 7.6 °C 1020.5 hPa Calm     95 % 0.0 mm
06:52 8.4 °C 7.6 °C 1020.5 hPa Calm     95 % 0.0 mm
06:57 8.4 °C 7.6 °C 1020.5 hPa Calm     95 % 0.0 mm
07:02 8.3 °C 7.5 °C 1020.9 hPa Calm     95 % 0.0 mm
07:12 8.1 °C 7.3 °C 1020.9 hPa Calm     95 % 0.0 mm
07:17 8.1 °C 7.3 °C 1020.9 hPa Calm     95 % 0.0 mm
07:22 8.1 °C 7.3 °C 1020.9 hPa Calm     95 % 0.0 mm
07:32 8.2 °C 7.6 °C 1021.2 hPa Calm     96 % 0.0 mm
07:37 8.2 °C 7.6 °C 1021.2 hPa Calm     96 % 0.0 mm
07:42 8.2 °C 7.6 °C 1021.2 hPa Calm     96 % 0.0 mm
07:47 8.2 °C 7.6 °C 1021.2 hPa Calm     96 % 0.0 mm
07:52 8.1 °C 7.3 °C 1021.2 hPa Calm     95 % 0.0 mm
08:02 8.3 °C 7.7 °C 1021.2 hPa Calm     96 % 0.0 mm
08:12 8.3 °C 7.5 °C 1021.2 hPa Calm     95 % 0.0 mm
08:17 8.4 °C 7.6 °C 1021.6 hPa Calm     95 % 0.0 mm
08:22 8.6 °C 8.0 °C 1021.6 hPa Calm     96 % 0.0 mm
08:32 9.1 °C 8.5 °C 1021.6 hPa Calm     96 % 0.0 mm
08:42 10.1 °C 9.5 °C 1021.6 hPa Calm     96 % 0.0 mm
08:52 10.3 °C 9.5 °C 1021.6 hPa Calm     95 % 0.0 mm
09:02 11.1 °C 10.2 °C 1021.6 hPa Calm     94 % 0.0 mm
09:12 11.5 °C 10.4 °C 1021.6 hPa Calm     93 % 0.0 mm
09:17 12.2 °C 11.3 °C 1021.6 hPa Calm     94 % 0.0 mm
09:22 12.5 °C 11.1 °C 1021.6 hPa Calm     91 % 0.0 mm
09:32 13.6 °C 11.8 °C 1021.6 hPa Calm     89 % 0.0 mm
09:37 14.3 °C 12.2 °C 1021.6 hPa Calm     87 % 0.0 mm
09:42 14.9 °C 11.9 °C 1021.6 hPa Calm     82 % 0.0 mm
09:47 15.2 °C 11.8 °C 1021.9 hPa Calm     80 % 0.0 mm
09:52 15.4 °C 11.6 °C 1021.9 hPa Calm     78 % 0.0 mm
10:02 15.2 °C 11.6 °C 1021.9 hPa Calm     79 % 0.0 mm
10:07 15.0 °C 11.6 °C 1021.9 hPa Calm     80 % 0.0 mm
10:12 15.7 °C 12.1 °C 1021.9 hPa Calm     79 % 0.0 mm
10:17 15.6 °C 11.8 °C 1021.9 hPa Calm     78 % 0.0 mm
10:22 15.5 °C 11.7 °C 1021.9 hPa Calm     78 % 0.0 mm
10:32 15.1 °C 11.7 °C 1021.9 hPa Calm     80 % 0.0 mm
10:37 15.2 °C 12.0 °C 1021.9 hPa Calm     81 % 0.0 mm
10:42 15.3 °C 11.9 °C 1021.9 hPa Calm     80 % 0.0 mm
10:52 15.6 °C 12.0 °C 1021.9 hPa Calm     79 % 0.0 mm
11:02 16.6 °C 12.7 °C 1021.9 hPa Calm     78 % 0.0 mm
11:07 16.8 °C 12.5 °C 1021.9 hPa Calm     76 % 0.0 mm
11:12 17.1 °C 12.4 °C 1022.2 hPa Calm     74 % 0.0 mm
11:17 17.1 °C 12.4 °C 1022.2 hPa Calm     74 % 0.0 mm
11:22 17.4 °C 12.5 °C 1022.2 hPa Calm     73 % 0.0 mm
11:32 18.2 °C 12.6 °C 1022.2 hPa Calm     70 % 0.0 mm
11:42 18.4 °C 12.4 °C 1022.2 hPa Calm     68 % 0.0 mm
11:47 18.7 °C 12.4 °C 1022.2 hPa Calm     67 % 0.0 mm
11:52 18.9 °C 12.2 °C 1022.2 hPa Calm     65 % 0.0 mm
12:02 19.1 °C 12.4 °C 1022.2 hPa Calm     65 % 0.0 mm
12:07 19.1 °C 12.1 °C 1022.2 hPa Calm     64 % 0.0 mm
12:17 19.7 °C 12.5 °C 1022.2 hPa Calm     63 % 0.0 mm
12:22 19.7 °C 12.0 °C 1022.2 hPa Calm     61 % 0.0 mm
12:27 19.6 °C 11.9 °C 1022.2 hPa Calm     61 % 0.0 mm
12:32 19.7 °C 12.0 °C 1022.2 hPa Calm     61 % 0.0 mm
12:42 19.6 °C 11.9 °C 1022.2 hPa Calm   4.8 km/h 61 % 0.0 mm
12:52 19.9 °C 12.2 °C 1022.2 hPa West 1.6 km/h 8.0 km/h 61 % 0.0 mm
13:02 20.0 °C 12.5 °C 1022.2 hPa WNW 3.2 km/h 8.0 km/h 62 % 0.0 mm
13:12 20.3 °C 12.8 °C 1022.2 hPa WNW 4.8 km/h 4.8 km/h 62 % 0.0 mm
13:17 20.3 °C 12.8 °C 1022.2 hPa SSW 1.6 km/h 8.0 km/h 62 % 0.0 mm
13:22 20.3 °C 12.5 °C 1022.2 hPa WNW 4.8 km/h 8.0 km/h 61 % 0.0 mm
13:32 20.3 °C 13.0 °C 1022.2 hPa Calm   8.0 km/h 63 % 0.0 mm
13:42 20.8 °C 12.7 °C 1022.2 hPa NE 1.6 km/h 8.0 km/h 60 % 0.0 mm
13:52 21.2 °C 13.1 °C 1022.2 hPa SW 3.2 km/h 6.4 km/h 60 % 0.0 mm
13:57 21.2 °C 12.9 °C 1022.2 hPa SW 4.8 km/h 8.0 km/h 59 % 0.0 mm
14:02 21.5 °C 12.9 °C 1022.2 hPa SSW 1.6 km/h 8.0 km/h 58 % 0.0 mm
14:12 20.7 °C 12.4 °C 1022.2 hPa West 3.2 km/h 8.0 km/h 59 % 0.0 mm
14:22 20.3 °C 12.5 °C 1022.2 hPa Calm   8.0 km/h 61 % 0.0 mm
14:27 20.3 °C 12.5 °C 1022.2 hPa Calm   8.0 km/h 61 % 0.0 mm
14:32 20.3 °C 12.5 °C 1022.2 hPa NNW 1.6 km/h 8.0 km/h 61 % 0.0 mm
14:42 20.2 °C 12.4 °C 1022.2 hPa Calm   6.4 km/h 61 % 0.0 mm
14:47 20.2 °C 12.2 °C 1022.2 hPa Calm   8.0 km/h 60 % 0.0 mm
14:52 20.3 °C 12.3 °C 1022.2 hPa NE 1.6 km/h 8.0 km/h 60 % 0.0 mm
14:57 20.3 °C 11.8 °C 1022.2 hPa North 3.2 km/h 3.2 km/h 58 % 0.0 mm
15:02 20.3 °C 11.8 °C 1022.2 hPa Calm   3.2 km/h 58 % 0.0 mm
15:12 20.4 °C 11.3 °C 1022.2 hPa Calm   4.8 km/h 56 % 0.0 mm
15:17 20.5 °C 11.4 °C 1022.2 hPa NNE 3.2 km/h 4.8 km/h 56 % 0.0 mm
15:22 20.6 °C 12.0 °C 1022.2 hPa North 1.6 km/h 4.8 km/h 58 % 0.0 mm
15:32 20.6 °C 12.3 °C 1022.2 hPa WNW 1.6 km/h 4.8 km/h 59 % 0.0 mm
15:42 20.6 °C 12.3 °C 1022.2 hPa NNE 1.6 km/h 9.7 km/h 59 % 0.0 mm
15:47 21.0 °C 11.9 °C 1022.2 hPa NNW 1.6 km/h 9.7 km/h 56 % 0.0 mm
15:52 21.2 °C 11.8 °C 1022.2 hPa North 1.6 km/h 9.7 km/h 55 % 0.0 mm
16:02 20.8 °C 11.7 °C 1022.2 hPa NNW 3.2 km/h 8.0 km/h 56 % 0.0 mm
16:12 20.7 °C 11.9 °C 1022.2 hPa NW 3.2 km/h 9.7 km/h 57 % 0.0 mm
16:17 20.7 °C 12.4 °C 1022.2 hPa NNW 1.6 km/h 8.0 km/h 59 % 0.0 mm
16:22 20.8 °C 12.2 °C 1022.2 hPa North 1.6 km/h 8.0 km/h 58 % 0.0 mm
16:32 21.0 °C 12.2 °C 1022.2 hPa NNW 9.7 km/h 9.7 km/h 57 % 0.0 mm
16:42 21.1 °C 12.8 °C 1022.2 hPa WNW 3.2 km/h 14.5 km/h 59 % 0.0 mm
16:52 20.9 °C 11.8 °C 1022.2 hPa WSW 1.6 km/h 14.5 km/h 56 % 0.0 mm
17:02 21.1 °C 12.2 °C 1022.2 hPa NW 3.2 km/h 11.3 km/h 57 % 0.0 mm
17:12 21.3 °C 12.2 °C 1022.2 hPa NW 3.2 km/h 11.3 km/h 56 % 0.0 mm
17:17 21.3 °C 12.4 °C 1022.2 hPa WNW 6.4 km/h 12.9 km/h 57 % 0.0 mm
17:22 21.4 °C 12.0 °C 1022.2 hPa WNW 3.2 km/h 12.9 km/h 55 % 0.0 mm
17:27 21.5 °C 12.4 °C 1022.2 hPa NW 4.8 km/h 12.9 km/h 56 % 0.0 mm
17:32 21.3 °C 11.9 °C 1022.2 hPa NW 4.8 km/h 12.9 km/h 55 % 0.0 mm
17:37 21.3 °C 11.9 °C 1021.9 hPa NW 4.8 km/h 12.9 km/h 55 % 0.0 mm
17:47 20.9 °C 12.1 °C 1022.2 hPa WNW 6.4 km/h 14.5 km/h 57 % 0.0 mm
17:52 20.9 °C 12.3 °C 1021.9 hPa NNW 1.6 km/h 14.5 km/h 58 % 0.0 mm
17:57 21.1 °C 12.2 °C 1022.2 hPa WNW 3.2 km/h 11.3 km/h 57 % 0.0 mm
18:02 21.0 °C 12.2 °C 1022.2 hPa WNW 3.2 km/h 11.3 km/h 57 % 0.0 mm
18:12 21.0 °C 12.4 °C 1022.2 hPa WNW 3.2 km/h 9.7 km/h 58 % 0.0 mm
18:17 21.0 °C 12.7 °C 1022.2 hPa WNW 1.6 km/h 9.7 km/h 59 % 0.0 mm
18:22 20.9 °C 12.6 °C 1022.2 hPa NNW 1.6 km/h 8.0 km/h 59 % 0.0 mm
18:32 20.9 °C 12.3 °C 1022.2 hPa Calm   8.0 km/h 58 % 0.0 mm
18:37 20.9 °C 12.6 °C 1022.2 hPa NNE 1.6 km/h 8.0 km/h 59 % 0.0 mm
18:42 20.7 °C 12.7 °C 1022.2 hPa NNE 3.2 km/h 8.0 km/h 60 % 0.0 mm
18:52 20.3 °C 12.8 °C 1022.2 hPa Calm   9.7 km/h 62 % 0.0 mm
19:02 20.1 °C 13.1 °C 1022.2 hPa NNW 8.0 km/h 12.9 km/h 64 % 0.0 mm
19:12 19.9 °C 12.9 °C 1022.2 hPa NE 6.4 km/h 12.9 km/h 64 % 0.0 mm
19:17 19.8 °C 13.0 °C 1022.2 hPa ENE 4.8 km/h 11.3 km/h 65 % 0.0 mm
19:22 19.6 °C 13.1 °C 1022.2 hPa NNE 4.8 km/h 11.3 km/h 66 % 0.0 mm
19:32 19.3 °C 13.0 °C 1022.6 hPa NW 3.2 km/h 9.7 km/h 67 % 0.0 mm
19:37 19.0 °C 13.0 °C 1022.6 hPa North 3.2 km/h 9.7 km/h 68 % 0.0 mm
19:42 18.8 °C 13.0 °C 1022.6 hPa North 1.6 km/h 9.7 km/h 69 % 0.0 mm
19:47 18.6 °C 13.0 °C 1022.6 hPa North 1.6 km/h 6.4 km/h 70 % 0.0 mm
19:52 18.3 °C 13.0 °C 1022.6 hPa Calm   6.4 km/h 71 % 0.0 mm
19:57 18.1 °C 13.2 °C 1022.9 hPa NNW 1.6 km/h 8.0 km/h 73 % 0.0 mm
20:02 17.7 °C 12.8 °C 1022.9 hPa NNW 3.2 km/h 8.0 km/h 73 % 0.0 mm
20:17 17.0 °C 12.7 °C 1022.9 hPa NNW 3.2 km/h 4.8 km/h 76 % 0.0 mm
20:32 16.4 °C 12.4 °C 1023.2 hPa Calm   4.8 km/h 77 % 0.0 mm
20:37 16.3 °C 12.5 °C 1023.2 hPa Calm   4.8 km/h 78 % 0.0 mm
20:42 16.1 °C 12.3 °C 1023.2 hPa Calm   4.8 km/h 78 % 0.0 mm
20:47 15.9 °C 12.3 °C 1023.2 hPa NNW 1.6 km/h 6.4 km/h 79 % 0.0 mm
20:57 15.7 °C 12.3 °C 1023.2 hPa Calm   4.8 km/h 80 % 0.0 mm
21:02 15.6 °C 12.2 °C 1023.6 hPa Calm   4.8 km/h 80 % 0.0 mm
21:12 15.2 °C 12.1 °C 1023.6 hPa North 1.6 km/h 3.2 km/h 82 % 0.0 mm
21:32 15.1 °C 12.0 °C 1023.6 hPa NNW 1.6 km/h 4.8 km/h 82 % 0.0 mm
21:37 15.1 °C 12.0 °C 1023.6 hPa NNW 3.2 km/h 6.4 km/h 82 % 0.0 mm
21:47 15.1 °C 12.2 °C 1023.6 hPa NNW 1.6 km/h 6.4 km/h 83 % 0.0 mm
21:52 15.1 °C 12.2 °C 1023.9 hPa NNW 3.2 km/h 6.4 km/h 83 % 0.0 mm
21:57 14.9 °C 12.0 °C 1023.9 hPa NNW 3.2 km/h 6.4 km/h 83 % 0.0 mm
22:02 14.9 °C 12.2 °C 1023.9 hPa WNW 3.2 km/h 6.4 km/h 84 % 0.0 mm
22:12 14.7 °C 12.0 °C 1023.9 hPa North 1.6 km/h 6.4 km/h 84 % 0.0 mm
22:17 14.6 °C 12.1 °C 1023.9 hPa NNW 3.2 km/h 6.4 km/h 85 % 0.0 mm
22:22 14.6 °C 12.1 °C 1023.9 hPa NNW 1.6 km/h 6.4 km/h 85 % 0.0 mm
22:32 14.7 °C 12.2 °C 1023.9 hPa NW 3.2 km/h 4.8 km/h 85 % 0.0 mm
22:37 14.8 °C 12.3 °C 1023.9 hPa North 4.8 km/h 6.4 km/h 85 % 0.0 mm
22:42 14.8 °C 12.3 °C 1023.9 hPa NNE 3.2 km/h 6.4 km/h 85 % 0.0 mm
22:52 14.7 °C 12.2 °C 1023.9 hPa NNE 8.0 km/h 8.0 km/h 85 % 0.0 mm
23:02 14.7 °C 12.2 °C 1023.9 hPa NNE 4.8 km/h 8.0 km/h 85 % 0.0 mm
23:12 14.6 °C 12.1 °C 1024.3 hPa NNE 9.7 km/h 11.3 km/h 85 % 0.0 mm
23:17 14.6 °C 12.1 °C 1024.3 hPa NNE 4.8 km/h 11.3 km/h 85 % 0.0 mm
23:22 14.4 °C 12.1 °C 1023.9 hPa Calm   11.3 km/h 86 % 0.0 mm
23:32 14.1 °C 11.8 °C 1024.3 hPa Calm   11.3 km/h 86 % 0.0 mm
23:37 13.9 °C 11.8 °C 1024.3 hPa Calm   3.2 km/h 87 % 0.0 mm
23:42 13.9 °C 11.9 °C 1024.3 hPa NNW 1.6 km/h 3.2 km/h 88 % 0.0 mm
23:47 13.9 °C 11.9 °C 1024.3 hPa NNE 1.6 km/h 11.3 km/h 88 % 0.0 mm
23:52 14.0 °C 12.0 °C 1024.3 hPa NNE 4.8 km/h 11.3 km/h 88 % 0.0 mm
Meteo18
Compliments of Weather Underground - 4 mb

Script developed by  Jim McMurry - jmcmurry@mwt.net Adapted for the template by  Wim van der Kuil - Leuven-Template.eu

You find our weather info also at:

European Weather Network

Weather Underground

Equipment we use:

Weather-station
Davis Vue

Weather-program
Meteohub

Weather-server
Raspberry PI 2 B+

Provider
1 and 1

Davis Vue

Meteohub

Raspberry PI 2 B+

1 and 1